createdAt,value
2023-04-06T00:00:52.806Z,-0.93
2023-04-06T00:03:58.932Z,-0.96
2023-04-06T00:07:30.657Z,-1.07
2023-04-06T00:10:43.139Z,-1.19
2023-04-06T00:13:52.024Z,-1.29
2023-04-06T00:17:32.342Z,-1.29
2023-04-06T00:21:04.406Z,-1.28
2023-04-06T00:24:08.666Z,-1.28
2023-04-06T00:27:47.338Z,-1.32
2023-04-06T00:31:36.197Z,-1.38
2023-04-06T00:35:12.240Z,-1.47
2023-04-06T00:38:52.134Z,-1.52
2023-04-06T00:42:04.147Z,-1.58
2023-04-06T00:45:17.259Z,-1.43
2023-04-06T00:48:06.081Z,-1.38
2023-04-06T00:51:37.959Z,-1.36
2023-04-06T00:55:16.461Z,-1.44
2023-04-06T00:58:58.307Z,-1.53
2023-04-06T01:02:07.243Z,-1.59
2023-04-06T01:05:17.833Z,-1.63
2023-04-06T01:08:28.574Z,-1.67
2023-04-06T01:11:34.563Z,-1.69
2023-04-06T01:14:43.911Z,-1.72
2023-04-06T01:17:54.725Z,-1.67
2023-04-06T01:21:20.967Z,-1.69
2023-04-06T01:25:03.682Z,-1.68
2023-04-06T01:28:29.223Z,-1.78
2023-04-06T01:32:18.090Z,-1.75
2023-04-06T01:35:55.650Z,-1.80
2023-04-06T01:39:09.667Z,-1.83
2023-04-06T01:42:21.844Z,-1.78
2023-04-06T01:46:03.396Z,-1.83
2023-04-06T01:49:18.686Z,-1.81
2023-04-06T01:52:34.504Z,-1.93
2023-04-06T01:55:54.746Z,-1.92
2023-04-06T01:59:24.332Z,-1.80
2023-04-06T02:02:29.877Z,-1.83
2023-04-06T02:05:38.613Z,-1.97
2023-04-06T02:09:03.299Z,-1.94
2023-04-06T02:12:25.307Z,-1.95
2023-04-06T02:16:12.974Z,-1.92
2023-04-06T02:19:13.971Z,-1.87
2023-04-06T02:22:35.633Z,-1.85
2023-04-06T02:25:46.732Z,-1.81
2023-04-06T02:29:11.373Z,-1.81
2023-04-06T02:32:17.924Z,-1.79
2023-04-06T02:35:25.100Z,-1.77
2023-04-06T02:38:07.014Z,-1.76
2023-04-06T02:41:21.068Z,-1.76
2023-04-06T02:44:09.483Z,-1.84
2023-04-06T02:47:16.529Z,-1.81
2023-04-06T02:50:02.359Z,-1.79
2023-04-06T02:53:27.134Z,-1.81
2023-04-06T02:56:15.058Z,-1.84
2023-04-06T02:59:55.642Z,-1.85
2023-04-06T03:03:09.958Z,-1.84
2023-04-06T03:06:41.932Z,-1.84
2023-04-06T03:09:49.207Z,-1.89
2023-04-06T03:12:52.828Z,-1.88
2023-04-06T03:15:53.253Z,-1.91
2023-04-06T03:18:49.068Z,-1.89
2023-04-06T03:21:47.753Z,-1.86
2023-04-06T03:24:43.147Z,-1.85
2023-04-06T03:27:29.698Z,-1.90
2023-04-06T03:30:33.554Z,-1.90
2023-04-06T03:33:27.968Z,-1.95
2023-04-06T03:36:13.184Z,-1.92
2023-04-06T03:39:18.840Z,-1.91
2023-04-06T03:42:16.916Z,-1.92
2023-04-06T03:45:25.041Z,-1.94
2023-04-06T03:48:28.953Z,-1.94
2023-04-06T03:52:15.245Z,-2.00
2023-04-06T03:55:38.576Z,-2.06
2023-04-06T03:58:37.299Z,-2.15
2023-04-06T04:02:11.456Z,-2.20
2023-04-06T04:05:34.291Z,-2.20
2023-04-06T04:08:39.312Z,-2.29
2023-04-06T04:11:46.387Z,-2.31
2023-04-06T04:14:54.090Z,-2.37
2023-04-06T04:17:51.557Z,-2.42
2023-04-06T04:20:55.437Z,-2.43
2023-04-06T04:24:09.908Z,-2.36
2023-04-06T04:27:08.941Z,-2.39
2023-04-06T04:30:01.656Z,-2.43
2023-04-06T04:32:48.051Z,-2.47
2023-04-06T04:36:07.301Z,-2.44
2023-04-06T04:38:59.471Z,-2.33
2023-04-06T04:41:47.868Z,-2.29
2023-04-06T04:44:49.031Z,-2.28
2023-04-06T04:47:35.196Z,-2.36
2023-04-06T04:50:38.176Z,-2.33
2023-04-06T04:53:23.551Z,-2.25
2023-04-06T04:57:04.520Z,-2.21
2023-04-06T05:00:24.288Z,-2.21
2023-04-06T05:03:19.775Z,-2.26
2023-04-06T05:06:13.884Z,-2.15
2023-04-06T05:09:35.486Z,-2.06
2023-04-06T05:12:42.164Z,-1.96
2023-04-06T05:16:13.616Z,-1.84
2023-04-06T05:19:28.322Z,-1.73
2023-04-06T05:22:19.652Z,-1.59
2023-04-06T05:25:45.589Z,-1.47
2023-04-06T05:29:05.899Z,-1.31
2023-04-06T05:32:26.121Z,-1.16
2023-04-06T05:35:39.752Z,-1.00
2023-04-06T05:39:02.450Z,-0.79
2023-04-06T05:42:41.316Z,-0.61
2023-04-06T05:45:58.740Z,-0.47
2023-04-06T05:49:26.074Z,-0.35
2023-04-06T05:52:27.800Z,-0.21
2023-04-06T05:56:09.245Z,-0.10
2023-04-06T05:59:58.082Z,0.06
2023-04-06T06:03:39.777Z,0.28
2023-04-06T06:06:56.435Z,0.48
2023-04-06T06:10:34.960Z,0.64
2023-04-06T06:14:23.963Z,0.79
2023-04-06T06:17:44.467Z,0.79
2023-04-06T06:20:59.709Z,1.03
2023-04-06T06:24:38.542Z,1.18
2023-04-06T06:28:08.011Z,1.26
2023-04-06T06:31:29.740Z,1.39
2023-04-06T06:35:01.675Z,1.59
2023-04-06T06:38:49.470Z,1.76
2023-04-06T06:42:08.676Z,1.94
2023-04-06T06:45:30.006Z,2.08
2023-04-06T06:48:47.653Z,2.25
2023-04-06T06:55:21.164Z,2.47
2023-04-06T06:59:09.579Z,2.52
2023-04-06T07:02:57.169Z,2.75
2023-04-06T07:06:37.505Z,2.88
2023-04-06T07:10:16.515Z,3.06
2023-04-06T07:14:05.443Z,5.00
2023-04-06T07:17:53.054Z,6.42
2023-04-06T07:21:19.216Z,7.01
2023-04-06T07:25:08.365Z,8.02
2023-04-06T07:28:56.512Z,8.91
2023-04-06T07:32:45.535Z,9.33
2023-04-06T07:36:11.621Z,9.64
2023-04-06T07:39:58.025Z,10.03
2023-04-06T07:43:32.940Z,10.28
2023-04-06T07:47:22.030Z,10.72
2023-04-06T07:51:11.360Z,11.07
2023-04-06T07:54:59.386Z,11.25
2023-04-06T07:58:44.421Z,11.37
2023-04-06T08:02:33.433Z,11.74
2023-04-06T08:06:22.581Z,11.80
2023-04-06T08:10:04.556Z,11.65
2023-04-06T08:13:53.535Z,12.29
2023-04-06T08:17:42.716Z,12.67
2023-04-06T08:21:31.693Z,12.48
2023-04-06T08:25:20.614Z,12.73
2023-04-06T08:29:09.605Z,11.99
2023-04-06T08:32:53.445Z,12.48
2023-04-06T08:36:48.653Z,11.77
2023-04-06T08:40:37.850Z,11.77
2023-04-06T08:44:36.938Z,12.55
2023-04-06T08:48:27.175Z,13.21
2023-04-06T08:52:06.150Z,12.46
2023-04-06T08:55:56.191Z,10.79
2023-04-06T08:59:45.333Z,10.43
2023-04-06T09:03:14.913Z,11.08
2023-04-06T09:06:46.965Z,12.39
2023-04-06T09:10:25.965Z,13.31
2023-04-06T09:14:09.722Z,13.28
2023-04-06T09:17:51.844Z,11.79
2023-04-06T09:21:42.744Z,11.22
2023-04-06T09:25:31.914Z,11.51
2023-04-06T09:29:22.989Z,12.74
2023-04-06T09:33:12.528Z,11.79
2023-04-06T09:37:01.819Z,12.27
2023-04-06T09:40:23.911Z,11.51
2023-04-06T09:44:12.092Z,10.23
2023-04-06T09:48:02.885Z,9.45
2023-04-06T09:51:52.275Z,11.23
2023-04-06T09:55:40.942Z,12.44
2023-04-06T09:59:22.987Z,12.72
2023-04-06T10:03:02.164Z,11.18
2023-04-06T10:06:47.515Z,10.94
2023-04-06T10:10:07.420Z,9.72
2023-04-06T10:13:45.388Z,9.53
2023-04-06T10:17:35.017Z,9.38
2023-04-06T10:21:23.852Z,9.28
2023-04-06T10:25:13.224Z,9.72
2023-04-06T10:28:53.757Z,10.33
2023-04-06T10:32:43.029Z,9.97
2023-04-06T10:36:56.965Z,10.17
2023-04-06T10:40:53.974Z,11.38
2023-04-06T10:44:38.301Z,10.39
2023-04-06T10:48:31.665Z,10.09
2023-04-06T10:52:12.582Z,10.19
2023-04-06T10:56:01.880Z,10.07
2023-04-06T10:59:52.663Z,10.32
2023-04-06T11:03:42.488Z,11.11
2023-04-06T11:07:31.065Z,11.11
2023-04-06T11:11:25.144Z,10.73
2023-04-06T11:14:59.972Z,10.21
2023-04-06T11:18:49.384Z,10.27
2023-04-06T11:22:38.811Z,10.48
2023-04-06T11:26:28.926Z,10.86
2023-04-06T11:30:02.972Z,10.51
2023-04-06T11:33:52.496Z,10.33
2023-04-06T11:37:42.123Z,10.88
2023-04-06T11:41:14.298Z,10.39
2023-04-06T11:45:23.018Z,10.74
2023-04-06T11:49:23.171Z,10.89
2023-04-06T11:52:57.362Z,10.61
2023-04-06T11:56:47.009Z,10.43
2023-04-06T12:00:26.303Z,10.31
2023-04-06T12:04:16.503Z,10.86
2023-04-06T12:07:56.623Z,11.80
2023-04-06T12:11:47.107Z,12.98
2023-04-06T12:15:29.854Z,11.41
2023-04-06T12:19:19.048Z,10.94
2023-04-06T12:22:54.562Z,10.30
2023-04-06T12:26:29.167Z,10.53
2023-04-06T12:30:09.854Z,10.43
2023-04-06T12:33:33.886Z,10.22
2023-04-06T12:36:21.351Z,10.51
2023-04-06T12:39:21.655Z,10.91
2023-04-06T12:42:01.150Z,10.99
2023-04-06T12:44:33.609Z,10.92
2023-04-06T12:47:27.950Z,10.59
2023-04-06T12:50:49.387Z,11.40
2023-04-06T12:54:00.342Z,11.00
2023-04-06T12:57:34.064Z,10.79
2023-04-06T13:01:23.488Z,10.26
2023-04-06T13:04:54.490Z,10.47
2023-04-06T13:08:29.971Z,10.62
2023-04-06T13:12:06.290Z,10.73
2023-04-06T13:15:40.830Z,10.77
2023-04-06T13:19:19.850Z,11.49
2023-04-06T13:23:09.224Z,10.95
2023-04-06T13:26:36.941Z,10.92
2023-04-06T13:30:26.615Z,11.19
2023-04-06T13:33:16.191Z,11.56
2023-04-06T13:35:47.134Z,10.95
2023-04-06T13:38:57.191Z,10.47
2023-04-06T13:42:20.373Z,10.78
2023-04-06T13:45:40.349Z,11.18
2023-04-06T13:49:31.929Z,11.69
2023-04-06T13:52:37.360Z,11.84
2023-04-06T13:55:50.322Z,11.43
2023-04-06T13:59:30.305Z,11.24
2023-04-06T14:03:22.745Z,11.50
2023-04-06T14:07:02.249Z,11.35
2023-04-06T14:10:51.392Z,11.47
2023-04-06T14:14:40.798Z,11.32
2023-04-06T14:18:12.573Z,11.20
2023-04-06T14:21:44.878Z,11.09
2023-04-06T14:25:34.655Z,11.00
2023-04-06T14:29:23.846Z,10.84
2023-04-06T14:32:58.762Z,11.17
2023-04-06T14:36:38.992Z,11.02
2023-04-06T14:40:18.768Z,10.89
2023-04-06T14:44:00.724Z,10.55
2023-04-06T14:47:48.662Z,10.96
2023-04-06T14:51:36.653Z,10.96
2023-04-06T14:54:42.767Z,10.19
2023-04-06T14:58:25.918Z,9.64
2023-04-06T15:02:08.354Z,9.39
2023-04-06T15:05:58.154Z,9.74
2023-04-06T15:09:32.684Z,10.21
2023-04-06T15:13:22.891Z,10.51
2023-04-06T15:17:01.400Z,10.68
2023-04-06T15:19:57.127Z,10.69
2023-04-06T15:23:29.085Z,10.65
2023-04-06T15:26:58.496Z,10.49
2023-04-06T15:30:38.926Z,10.43
2023-04-06T15:34:21.686Z,10.48
2023-04-06T15:38:10.908Z,10.22
2023-04-06T15:41:50.131Z,10.65
2023-04-06T15:45:42.276Z,10.40
2023-04-06T15:49:21.186Z,10.46
2023-04-06T15:53:10.406Z,10.35
2023-04-06T15:57:00.331Z,9.96
2023-04-06T16:00:40.464Z,9.70
2023-04-06T16:04:15.335Z,9.75
2023-04-06T16:07:38.500Z,10.00
2023-04-06T16:11:11.447Z,9.89
2023-04-06T16:14:50.513Z,9.77
2023-04-06T16:18:39.955Z,9.69
2023-04-06T16:21:50.625Z,9.63
2023-04-06T16:25:32.578Z,9.67
2023-04-06T16:29:21.619Z,9.62
2023-04-06T16:33:11.415Z,9.49
2023-04-06T16:36:59.029Z,9.41
2023-04-06T16:40:48.345Z,9.38
2023-04-06T16:44:36.184Z,9.38
2023-04-06T16:48:18.035Z,9.41
2023-04-06T16:51:45.829Z,9.43
2023-04-06T16:55:35.038Z,9.46
2023-04-06T16:59:24.010Z,9.35
2023-04-06T17:02:55.189Z,9.16
2023-04-06T17:06:10.325Z,9.01
2023-04-06T17:09:59.546Z,8.97
2023-04-06T17:13:38.638Z,9.08
2023-04-06T17:17:08.840Z,9.15
2023-04-06T17:20:16.277Z,8.82
2023-04-06T17:23:57.037Z,8.57
2023-04-06T17:27:46.788Z,8.53
2023-04-06T17:31:35.088Z,8.37
2023-04-06T17:35:24.860Z,8.14
2023-04-06T17:39:06.710Z,8.00
2023-04-06T17:42:53.637Z,7.84
2023-04-06T17:46:42.838Z,7.59
2023-04-06T17:50:31.522Z,7.41
2023-04-06T17:54:04.817Z,7.31
2023-04-06T17:57:54.121Z,7.24
2023-04-06T18:01:33.780Z,7.07
2023-04-06T18:05:13.468Z,7.02
2023-04-06T18:09:01.520Z,6.94
2023-04-06T18:12:33.362Z,6.87
2023-04-06T18:16:05.667Z,6.86
2023-04-06T18:19:55.282Z,6.82
2023-04-06T18:23:17.502Z,6.71
2023-04-06T18:26:23.303Z,6.61
2023-04-06T18:29:55.511Z,6.56
2023-04-06T18:33:35.063Z,6.51
2023-04-06T18:36:20.746Z,6.43
2023-04-06T18:39:34.877Z,6.45
2023-04-06T18:43:13.589Z,6.32
2023-04-06T18:46:36.828Z,6.12
2023-04-06T18:49:49.152Z,5.96
2023-04-06T18:53:29.073Z,5.82
2023-04-06T18:56:32.349Z,5.70
2023-04-06T18:59:22.328Z,5.62
2023-04-06T19:02:54.240Z,5.56
2023-04-06T19:06:03.184Z,5.47
2023-04-06T19:09:36.046Z,5.42
2023-04-06T19:12:11.004Z,5.34
2023-04-06T19:14:40.945Z,5.33
2023-04-06T19:17:56.311Z,5.36
2023-04-06T19:21:29.181Z,5.41
2023-04-06T19:24:34.455Z,5.44
2023-04-06T19:27:13.771Z,5.49
2023-04-06T19:30:10.844Z,5.52
2023-04-06T19:33:26.899Z,5.61
2023-04-06T19:35:59.972Z,5.66
2023-04-06T19:38:30.242Z,5.71
2023-04-06T19:41:58.446Z,5.78
2023-04-06T19:45:41.347Z,5.79
2023-04-06T19:49:05.206Z,5.78
2023-04-06T19:52:40.542Z,5.82
2023-04-06T19:56:06.445Z,5.82
2023-04-06T19:59:46.579Z,5.84
2023-04-06T20:03:29.967Z,5.85
2023-04-06T20:07:19.232Z,5.89
2023-04-06T20:10:44.039Z,5.95
2023-04-06T20:14:20.217Z,6.03
2023-04-06T20:17:38.127Z,6.08
2023-04-06T20:21:21.074Z,6.19
2023-04-06T20:24:59.721Z,6.22
2023-04-06T20:28:32.477Z,6.26
2023-04-06T20:32:15.968Z,6.28
2023-04-06T20:35:39.309Z,6.23
2023-04-06T20:39:12.785Z,6.24
2023-04-06T20:42:56.334Z,6.25
2023-04-06T20:46:31.380Z,6.22
2023-04-06T20:49:54.708Z,6.23
2023-04-06T20:53:43.914Z,6.27
2023-04-06T20:57:33.453Z,6.40
2023-04-06T21:00:46.298Z,6.46
2023-04-06T21:04:35.632Z,6.54
2023-04-06T21:08:14.944Z,6.58
2023-04-06T21:11:58.330Z,6.54
2023-04-06T21:15:47.646Z,6.38
2023-04-06T21:19:37.229Z,6.34
2023-04-06T21:23:19.273Z,6.32
2023-04-06T21:27:08.397Z,6.37
2023-04-06T21:30:50.933Z,6.35
2023-04-06T21:34:40.724Z,6.35
2023-04-06T21:38:30.567Z,6.39
2023-04-06T21:42:12.023Z,6.36
2023-04-06T21:46:01.022Z,6.38
2023-04-06T21:49:47.564Z,6.37
2023-04-06T21:53:29.059Z,6.32
2023-04-06T21:57:15.925Z,6.28
2023-04-06T22:01:05.049Z,6.30
2023-04-06T22:04:47.044Z,6.22
2023-04-06T22:08:32.720Z,6.17
2023-04-06T22:12:05.085Z,6.28
2023-04-06T22:15:47.799Z,6.42
2023-04-06T22:19:29.976Z,6.32
2023-04-06T22:22:49.897Z,6.07
2023-04-06T22:26:23.828Z,6.09
2023-04-06T22:30:12.705Z,6.02
2023-04-06T22:34:01.596Z,6.01
2023-04-06T22:37:49.494Z,6.02
2023-04-06T22:41:29.517Z,6.02
2023-04-06T22:45:11.469Z,6.03
2023-04-06T22:48:43.138Z,6.06
2023-04-06T22:52:15.797Z,5.99
2023-04-06T22:56:03.596Z,5.93
2023-04-06T22:59:42.576Z,5.99
2023-04-06T23:03:22.574Z,5.86
2023-04-06T23:07:01.469Z,5.77
2023-04-06T23:10:49.356Z,5.69
2023-04-06T23:14:36.703Z,5.69
2023-04-06T23:18:25.614Z,5.69
2023-04-06T23:22:03.206Z,5.58
2023-04-06T23:25:52.085Z,5.65
2023-04-06T23:29:40.755Z,5.46
2023-04-06T23:33:29.638Z,5.33
2023-04-06T23:37:11.204Z,5.14
2023-04-06T23:40:50.453Z,5.05
2023-04-06T23:44:22.109Z,4.99
2023-04-06T23:47:48.036Z,4.84
2023-04-06T23:51:18.374Z,4.89
2023-04-06T23:54:49.422Z,4.91
2023-04-06T23:58:10.953Z,4.95
